Time;durP1;ratioP1;P1;durP2;ratioP2;P2;SDS_P1;SDS_P2;PMS_P1;PMS_P2;Temp;Humidity;BMP_temperature;BMP_pressure;BME280_temperature;BME280_humidity;BME280_pressure;Samples;Min_cycle;Max_cycle;Signal;HPM_P1;HPM_P2
2022/10/30 00:02:32;;;;;;;40.03;14.38;;;;;;;12.65;69.86;100216.44;10275561;28;20042;-80
2022/10/30 00:07:34;;;;;;;40.80;15.57;;;;;;;12.66;69.72;100217.28;10236579;29;20054;-79
2022/10/30 00:12:36;;;;;;;19.92;12.52;;;;;;;12.64;69.83;100203.41;10237702;28;20093;-79
2022/10/30 00:17:37;;;;;;;18.98;12.43;;;;;;;12.64;69.79;100201.63;10237889;29;20333;-79
2022/10/30 00:22:39;;;;;;;25.25;14.75;;;;;;;12.44;69.92;100201.19;10232845;29;20073;-80
2022/10/30 00:27:41;;;;;;;18.40;12.93;;;;;;;12.35;69.88;100197.38;10228826;29;20051;-79
2022/10/30 00:32:43;;;;;;;16.67;10.88;;;;;;;12.32;70.15;100197.56;10232189;28;20054;-80
2022/10/30 00:37:44;;;;;;;20.00;12.05;;;;;;;12.33;69.99;100198.41;10233823;28;20066;-79
2022/10/30 00:42:46;;;;;;;32.88;13.95;;;;;;;12.32;69.98;100205.44;10233628;29;20488;-80
2022/10/30 00:48:00;;;;;;;33.97;13.05;;;;;;;12.29;70.09;100197.78;10233995;29;20421;-79
2022/10/30 00:53:04;;;;;;;23.00;11.50;;;;;;;12.28;70.10;100195.19;10236525;29;20055;-79
2022/10/30 00:58:13;;;;;;;17.13;10.98;;;;;;;12.27;70.09;100194.38;10235343;28;20051;-80
2022/10/30 01:03:15;;;;;;;19.58;8.35;;;;;;;12.12;69.99;100197.94;10241848;28;20062;-79
2022/10/30 01:08:18;;;;;;;29.10;13.20;;;;;;;12.12;70.29;100198.78;10273603;28;20101;-81
2022/10/30 01:13:22;;;;;;;13.30;9.43;;;;;;;12.15;70.02;100205.59;10274393;28;20066;-80
2022/10/30 01:18:33;;;;;;;63.38;14.73;;;;;;;11.99;70.19;100205.72;10273496;28;20054;-79
2022/10/30 01:23:59;;;;;;;175.88;19.05;;;;;;;11.95;70.38;100198.13;10289278;28;20519;-79
2022/10/30 01:29:22;;;;;;;239.80;19.55;;;;;;;11.86;70.45;100203.94;10269361;28;20398;-79
2022/10/30 01:34:43;;;;;;;372.75;22.15;;;;;;;11.78;70.81;100204.41;10271736;28;20105;-79
2022/10/30 01:39:44;;;;;;;38.03;14.95;;;;;;;11.78;71.10;100211.41;10267659;28;20105;-79
2022/10/30 01:44:46;;;;;;;33.40;12.13;;;;;;;11.81;70.66;100204.22;10270393;28;20046;-79
2022/10/30 01:49:50;;;;;;;194.32;20.85;;;;;;;11.86;70.62;100203.94;10269986;28;20046;-79
2022/10/30 01:55:27;;;;;;;70.45;12.65;;;;;;;11.81;70.49;100209.44;10283586;28;20055;-79
2022/10/30 02:00:29;;;;;;;154.43;16.52;;;;;;;11.89;70.40;100220.31;10277810;28;20062;-79
2022/10/30 02:05:47;;;;;;;270.48;20.40;;;;;;;11.85;70.54;100216.19;10271857;28;20057;-79
2022/10/30 02:10:51;;;;;;;102.53;16.58;;;;;;;11.89;70.53;100219.47;10272254;28;20050;-80
2022/10/30 02:15:52;;;;;;;271.08;19.83;;;;;;;11.90;70.31;100210.69;10273826;28;20059;-80
2022/10/30 02:20:54;;;;;;;115.75;15.18;;;;;;;11.88;70.36;100207.31;10287580;28;20781;-80
2022/10/30 02:25:56;;;;;;;128.88;13.10;;;;;;;11.91;70.65;100212.34;10271892;28;20690;-80
2022/10/30 02:30:58;;;;;;;29.27;13.55;;;;;;;11.98;70.34;100208.44;10271201;28;20054;-79
2022/10/30 02:35:59;;;;;;;14.13;8.07;;;;;;;12.01;70.32;100209.06;10271155;28;20057;-80
2022/10/30 02:41:01;;;;;;;202.48;19.00;;;;;;;12.01;70.13;100213.47;10272492;28;20054;-80
2022/10/30 02:46:04;;;;;;;28.30;12.15;;;;;;;12.00;70.52;100209.19;10272512;28;20421;-80
2022/10/30 02:51:06;;;;;;;23.20;14.02;;;;;;;12.04;70.50;100205.44;10272003;28;20078;-79
2022/10/30 02:56:13;;;;;;;50.58;10.93;;;;;;;12.02;70.26;100196.81;10270057;28;20054;-80
2022/10/30 03:01:17;;;;;;;31.90;13.20;;;;;;;11.96;70.14;100199.81;10279497;28;20513;-80
2022/10/30 03:06:19;;;;;;;52.22;16.02;;;;;;;11.84;70.33;100190.09;10284084;28;20068;-79
2022/10/30 03:11:20;;;;;;;22.73;12.20;;;;;;;11.79;70.46;100189.50;10285594;28;20076;-80
2022/10/30 03:16:25;;;;;;;22.02;11.38;;;;;;;11.73;70.43;100187.25;10284411;28;20057;-80
2022/10/30 03:21:28;;;;;;;72.15;14.85;;;;;;;11.65;70.60;100197.34;10283331;28;20130;-79
2022/10/30 03:26:29;;;;;;;33.65;11.30;;;;;;;11.52;70.88;100201.66;10284171;28;20065;-80
2022/10/30 03:31:32;;;;;;;25.92;11.95;;;;;;;11.47;71.25;100193.22;10283683;28;20501;-80
2022/10/30 03:36:34;;;;;;;131.57;28.85;;;;;;;11.48;71.27;100189.69;10283775;28;20065;-80
2022/10/30 03:41:35;;;;;;;262.05;23.27;;;;;;;11.53;71.48;100185.00;10284971;28;20051;-80
2022/10/30 03:46:37;;;;;;;47.47;12.40;;;;;;;11.57;71.21;100184.72;10283320;28;20047;-79
2022/10/30 03:51:39;;;;;;;48.47;13.10;;;;;;;11.52;70.90;100181.53;10282894;28;20138;-79
2022/10/30 03:56:40;;;;;;;235.10;17.35;;;;;;;11.48;70.88;100172.16;10282903;28;20055;-80
2022/10/30 04:01:42;;;;;;;69.80;11.45;;;;;;;11.43;70.80;100176.84;10283521;28;20043;-79
2022/10/30 04:06:44;;;;;;;44.42;13.18;;;;;;;11.36;70.60;100191.22;10277220;28;20157;-80
2022/10/30 04:11:46;;;;;;;453.48;23.98;;;;;;;11.33;70.69;100183.56;10290332;28;20134;-80
2022/10/30 04:16:47;;;;;;;460.20;27.40;;;;;;;11.31;70.58;100174.97;10276767;28;20061;-80
2022/10/30 04:21:50;;;;;;;520.42;21.60;;;;;;;11.24;70.62;100186.69;10278447;28;20064;-80
2022/10/30 04:26:51;;;;;;;379.10;17.52;;;;;;;11.08;70.88;100185.91;10277123;28;20082;-80
2022/10/30 04:31:53;;;;;;;314.27;19.48;;;;;;;11.06;70.97;100178.16;10276099;28;20420;-80
2022/10/30 04:36:55;;;;;;;265.50;20.42;;;;;;;11.01;70.60;100187.19;10275016;28;20432;-79
2022/10/30 04:41:57;;;;;;;365.02;23.58;;;;;;;10.99;70.54;100189.88;10275417;28;20059;-79
2022/10/30 04:46:58;;;;;;;136.38;11.63;;;;;;;11.02;70.76;100187.09;10275562;28;20050;-80
2022/10/30 04:52:00;;;;;;;301.02;14.70;;;;;;;11.05;70.68;100186.94;10276313;28;20055;-80
2022/10/30 04:57:02;;;;;;;259.15;19.23;;;;;;;11.14;70.39;100181.16;10276431;28;20059;-80
2022/10/30 05:02:04;;;;;;;251.20;16.38;;;;;;;11.23;70.52;100172.75;10273541;28;20708;-80
2022/10/30 05:07:06;;;;;;;188.45;12.57;;;;;;;11.12;70.82;100176.94;10274339;28;20496;-79
2022/10/30 05:12:09;;;;;;;111.78;10.05;;;;;;;11.19;70.84;100175.69;10275661;28;20062;-80
2022/10/30 05:17:10;;;;;;;183.73;19.75;;;;;;;11.27;70.67;100174.28;10273071;28;20424;-80
2022/10/30 05:22:13;;;;;;;70.32;9.10;;;;;;;11.35;70.55;100183.47;10272893;28;20050;-80
2022/10/30 05:27:14;;;;;;;310.38;26.05;;;;;;;11.26;70.58;100182.22;10272431;28;20062;-80
2022/10/30 05:32:16;;;;;;;209.88;22.05;;;;;;;11.27;70.42;100187.38;10273232;28;20075;-80
2022/10/30 05:37:18;;;;;;;344.65;28.40;;;;;;;11.22;70.24;100194.66;10272687;28;20088;-80
2022/10/30 05:42:19;;;;;;;219.32;19.83;;;;;;;11.23;70.52;100193.72;10272688;28;20074;-80
2022/10/30 05:47:21;;;;;;;196.02;20.00;;;;;;;11.23;70.44;100192.88;10273832;28;20081;-79
2022/10/30 05:52:23;;;;;;;297.15;24.77;;;;;;;11.22;70.56;100192.03;10271901;28;20505;-79
2022/10/30 05:57:28;;;;;;;217.27;17.33;;;;;;;11.23;70.59;100196.31;10272045;28;20056;-79
2022/10/30 06:02:29;;;;;;;305.88;17.52;;;;;;;11.18;70.94;100187.06;10271761;28;20054;-79
2022/10/30 06:07:31;;;;;;;251.88;20.85;;;;;;;11.21;70.96;100185.09;10273354;28;20063;-78
2022/10/30 06:12:33;;;;;;;162.27;11.05;;;;;;;11.16;71.16;100197.63;10272164;28;20541;-79
2022/10/30 06:17:35;;;;;;;118.05;11.18;;;;;;;11.13;71.00;100205.66;10272086;28;20065;-79
2022/10/30 06:22:36;;;;;;;113.03;13.77;;;;;;;11.14;71.22;100209.13;10271670;28;20051;-80
2022/10/30 06:27:40;;;;;;;137.02;10.23;;;;;;;11.15;71.00;100208.19;10266712;28;20830;-80
2022/10/30 06:32:55;;;;;;;314.27;26.63;;;;;;;11.11;70.84;100215.34;10275779;28;20051;-79
2022/10/30 06:38:01;;;;;;;471.77;30.02;;;;;;;11.14;70.68;100220.44;10281797;28;20402;-79
2022/10/30 06:43:03;;;;;;;224.52;11.45;;;;;;;11.14;70.96;100219.59;10282163;28;20416;-80
2022/10/30 06:48:05;;;;;;;179.20;11.95;;;;;;;11.09;71.02;100216.41;10281943;28;20054;-79
2022/10/30 06:53:13;;;;;;;168.73;11.52;;;;;;;11.09;70.89;100211.16;10285595;28;20054;-80
2022/10/30 06:58:15;;;;;;;196.40;14.05;;;;;;;11.23;70.82;100219.88;10284764;28;20134;-81
2022/10/30 07:03:17;;;;;;;260.90;18.23;;;;;;;11.30;70.46;100223.00;10282548;28;20061;-80
2022/10/30 07:08:23;;;;;;;512.22;29.95;;;;;;;11.32;70.15;100207.22;10283062;28;20054;-80
2022/10/30 07:13:25;;;;;;;264.48;14.48;;;;;;;11.52;70.26;100202.47;10280024;28;20744;-81
2022/10/30 07:18:36;;;;;;;341.75;22.90;;;;;;;11.66;69.94;100207.72;10283434;28;20062;-80
2022/10/30 07:23:38;;;;;;;272.23;20.88;;;;;;;11.76;69.81;100210.66;10277278;28;20819;-80
2022/10/30 07:28:42;;;;;;;142.70;11.00;;;;;;;11.92;69.54;100216.66;10280231;28;20050;-79
2022/10/30 07:33:47;;;;;;;71.82;10.18;;;;;;;11.87;69.88;100219.56;10281392;28;20105;-80
2022/10/30 07:38:56;;;;;;;129.00;11.23;;;;;;;11.81;70.16;100217.31;10282616;28;20524;-80
2022/10/30 07:43:57;;;;;;;271.08;24.17;;;;;;;11.92;69.85;100219.28;10294871;28;20059;-79
2022/10/30 07:49:08;;;;;;;214.40;17.73;;;;;;;11.98;69.49;100214.53;10277791;28;20058;-79
2022/10/30 07:54:21;;;;;;;;;;;;;;;11.64;70.48;100209.59;10276422;28;20050;-79
2022/10/30 07:59:22;;;;;;;194.90;15.43;;;;;;;12.01;69.86;100214.31;10292276;28;20309;-79
2022/10/30 08:04:25;;;;;;;272.23;15.63;;;;;;;12.15;69.42;100226.56;10274025;28;20078;-79
2022/10/30 08:09:27;;;;;;;237.88;12.55;;;;;;;12.20;69.27;100226.28;10275870;28;20501;-80
2022/10/30 08:14:30;;;;;;;299.13;22.13;;;;;;;12.31;68.88;100219.50;10272391;28;20054;-79
2022/10/30 08:19:32;;;;;;;247.38;23.30;;;;;;;12.47;69.12;100222.84;10273365;28;20435;-79
2022/10/30 08:24:34;;;;;;;370.95;22.27;;;;;;;12.64;68.92;100225.22;10269277;28;20057;-80
2022/10/30 08:29:37;;;;;;;452.75;23.67;;;;;;;12.55;69.07;100227.59;10271194;28;20047;-79
2022/10/30 08:34:39;;;;;;;354.40;21.02;;;;;;;12.80;68.71;100225.13;10272738;28;20495;-79
2022/10/30 08:39:43;;;;;;;461.52;24.58;;;;;;;12.89;67.71;100221.88;10272303;28;20055;-79
2022/10/30 08:44:57;;;;;;;566.78;27.55;;;;;;;12.66;68.34;100218.09;10270589;28;20505;-79
2022/10/30 08:50:21;;;;;;;828.08;54.10;;;;;;;12.83;68.08;100217.88;10273232;28;20507;-80
2022/10/30 08:55:50;;;;;;;381.15;15.05;;;;;;;13.00;67.87;100219.41;10264590;28;20054;-78
2022/10/30 09:00:53;;;;;;;318.48;17.50;;;;;;;13.10;68.60;100211.78;10274764;28;20047;-80
2022/10/30 09:06:03;;;;;;;281.23;16.75;;;;;;;13.49;68.04;100214.41;10265528;28;20063;-79
2022/10/30 09:11:07;;;;;;;442.85;25.58;;;;;;;13.74;66.91;100214.41;10273136;28;20050;-79
2022/10/30 09:16:10;;;;;;;437.15;22.98;;;;;;;13.74;66.83;100210.00;10269623;28;20109;-79
2022/10/30 09:21:24;;;;;;;307.20;20.55;;;;;;;13.73;66.70;100208.34;10274029;28;20054;-79
2022/10/30 09:26:27;;;;;;;151.13;14.93;;;;;;;13.59;67.52;100211.06;10268898;28;20576;-80
2022/10/30 09:31:30;;;;;;;105.13;11.98;;;;;;;13.73;67.80;100208.34;10271661;28;20043;-79
2022/10/30 09:36:32;;;;;;;175.38;14.50;;;;;;;13.95;67.29;100215.59;10269985;28;20425;-81
2022/10/30 09:48:14;;;;;;;446.80;29.30;;;;;;;14.21;66.43;100214.63;10272551;28;20126;-80
2022/10/30 09:53:38;;;;;;;229.93;20.40;;;;;;;14.27;66.52;100208.91;10286532;28;20723;-81
2022/10/30 09:59:13;;;;;;;314.70;31.30;;;;;;;14.57;65.76;100205.94;10272621;28;20055;-81
2022/10/30 10:04:27;;;;;;;99.05;14.35;;;;;;;14.88;65.99;100201.94;10277375;28;20050;-81
2022/10/30 10:09:33;;;;;;;64.70;14.32;;;;;;;14.85;65.88;100204.78;10262367;28;20086;-81
2022/10/30 10:14:43;;;;;;;90.80;18.70;;;;;;;14.64;66.52;100206.31;10264442;28;20559;-81
2022/10/30 10:20:18;;;;;;;59.13;17.70;;;;;;;14.55;66.37;100198.13;10265823;28;20134;-80
2022/10/30 10:25:24;;;;;;;45.45;16.02;;;;;;;14.74;66.62;100187.13;10266947;28;20059;-80
2022/10/30 10:30:47;;;;;;;25.38;14.23;;;;;;;14.89;66.29;100179.91;10264272;28;20051;-80
2022/10/30 10:35:57;;;;;;;36.03;17.50;;;;;;;14.88;66.53;100184.31;10260898;28;20105;-80
2022/10/30 10:41:24;;;;;;;72.55;22.80;;;;;;;14.81;66.81;100182.25;10272899;28;20057;-80
2022/10/30 10:46:47;;;;;;;75.15;20.73;;;;;;;14.54;67.71;100179.84;10273517;28;20933;-80
2022/10/30 10:52:03;;;;;;;16.92;13.10;;;;;;;14.57;67.96;100174.38;10259897;28;20109;-80
2022/10/30 10:57:09;;;;;;;22.98;13.85;;;;;;;14.67;67.60;100166.63;10261466;28;20053;-80
2022/10/30 11:02:49;;;;;;;18.40;13.70;;;;;;;14.62;68.44;100163.47;10262989;28;20070;-80
2022/10/30 11:07:57;;;;;;;16.67;10.35;;;;;;;14.75;67.26;100157.22;10259832;28;20073;-80
2022/10/30 11:13:01;;;;;;;15.52;10.70;;;;;;;14.92;66.79;100159.44;10263772;28;20401;-80
2022/10/30 11:18:09;;;;;;;16.02;10.00;;;;;;;15.08;66.64;100146.00;10262704;28;20911;-80
2022/10/30 11:23:32;;;;;;;20.75;9.95;;;;;;;15.13;66.57;100135.94;10264418;28;20054;-80
2022/10/30 11:28:41;;;;;;;12.07;9.10;;;;;;;15.28;66.30;100134.78;10270639;28;20051;-80
2022/10/30 11:33:45;;;;;;;18.98;9.30;;;;;;;15.48;66.03;100139.38;10265260;28;20043;-80
2022/10/30 11:38:48;;;;;;;16.20;8.27;;;;;;;15.69;65.44;100134.28;10262685;28;20062;-80
2022/10/30 11:43:50;;;;;;;14.35;8.32;;;;;;;15.88;65.21;100132.72;10263757;28;20053;-81
2022/10/30 11:48:56;;;;;;;12.18;7.30;;;;;;;16.15;63.54;100119.16;10266771;28;20113;-80
2022/10/30 11:54:01;;;;;;;14.02;7.25;;;;;;;16.36;63.09;100117.44;10267908;28;20062;-80
2022/10/30 11:59:06;;;;;;;15.02;7.60;;;;;;;16.63;62.65;100111.75;10267300;28;20051;-80
2022/10/30 12:04:21;;;;;;;14.20;7.10;;;;;;;16.80;61.60;100113.84;10261589;28;20055;-80
2022/10/30 12:09:31;;;;;;;13.88;7.70;;;;;;;16.96;61.64;100104.50;10262644;28;20059;-80
2022/10/30 12:14:37;;;;;;;;;;;;;;;16.80;62.33;100108.56;10263393;28;20095;-80
2022/10/30 12:19:48;;;;;;;12.98;6.90;;;;;;;17.10;62.70;100094.59;10262705;28;20017;-81
2022/10/30 12:24:55;;;;;;;13.90;7.70;;;;;;;17.20;62.69;100090.22;10264710;28;21081;-80
2022/10/30 12:30:19;;;;;;;12.80;7.35;;;;;;;17.25;62.25;100083.56;10274899;28;20051;-80
2022/10/30 12:35:30;;;;;;;13.13;6.40;;;;;;;17.38;62.22;100084.25;10263740;28;20077;-80
2022/10/30 12:40:52;;;;;;;12.63;6.82;;;;;;;17.46;62.10;100079.13;10261780;28;20058;-80
2022/10/30 12:46:28;;;;;;;14.27;7.13;;;;;;;17.57;61.69;100079.03;10259587;28;20355;-80
2022/10/30 12:51:53;;;;;;;12.18;6.25;;;;;;;17.85;60.20;100072.19;10264492;28;20057;-81
2022/10/30 12:57:11;;;;;;;14.40;6.88;;;;;;;18.26;59.43;100071.22;10264703;28;20046;-80
2022/10/30 13:02:50;;;;;;;15.52;6.07;;;;;;;18.64;58.35;100058.00;10281289;28;20398;-80
2022/10/30 13:07:59;;;;;;;9.32;5.57;;;;;;;18.83;58.32;100057.16;10263604;28;20517;-80
2022/10/30 13:13:17;;;;;;;12.18;5.50;;;;;;;19.01;56.92;100055.47;10266692;28;20484;-81
2022/10/30 13:18:23;;;;;;;16.33;5.75;;;;;;;19.12;56.70;100042.91;10270224;28;21035;-80
2022/10/30 13:23:39;;;;;;;14.15;5.63;;;;;;;19.05;57.24;100044.47;10271675;28;20054;-81
2022/10/30 13:29:00;;;;;;;11.90;5.78;;;;;;;18.99;57.85;100044.16;10270940;28;20425;-81
2022/10/30 13:34:26;;;;;;;15.77;5.78;;;;;;;18.95;58.87;100040.94;10270270;28;20053;-82
2022/10/30 13:39:45;;;;;;;10.30;5.50;;;;;;;18.88;58.57;100045.16;10273109;28;20050;-81
2022/10/30 13:45:05;;;;;;;11.02;5.32;;;;;;;18.89;58.66;100044.16;10271197;28;20535;-81
2022/10/30 13:50:24;;;;;;;10.63;5.13;;;;;;;18.78;58.58;100046.13;10271852;28;20398;-81
2022/10/30 13:55:33;;;;;;;14.88;5.40;;;;;;;18.68;59.41;100051.44;10268804;28;20046;-80
2022/10/30 14:01:01;;;;;;;10.02;5.25;;;;;;;18.59;59.39;100044.31;10271172;28;20077;-81
2022/10/30 14:06:41;;;;;;;11.60;5.75;;;;;;;18.40;59.66;100053.09;10264524;28;20057;-81
2022/10/30 14:11:44;;;;;;;15.05;5.70;;;;;;;18.27;60.17;100054.34;10286113;28;20064;-81
2022/10/30 14:17:12;;;;;;;9.20;5.10;;;;;;;18.08;60.46;100047.16;10268162;28;20524;-80
2022/10/30 14:22:24;;;;;;;12.93;5.20;;;;;;;18.06;60.84;100050.91;10285935;28;20417;-80
2022/10/30 14:27:37;;;;;;;12.82;5.90;;;;;;;18.02;61.55;100050.38;10271447;28;20055;-79
2022/10/30 14:32:40;;;;;;;11.60;5.78;;;;;;;17.99;61.99;100047.16;10271123;28;20051;-80
2022/10/30 14:37:46;;;;;;;11.63;6.00;;;;;;;17.93;62.54;100058.28;10268053;28;20150;-80
2022/10/30 14:43:05;;;;;;;12.40;5.88;;;;;;;17.88;62.93;100055.19;10268912;28;20421;-80
2022/10/30 14:48:31;;;;;;;12.93;5.90;;;;;;;17.88;63.09;100055.19;10268175;28;20497;-81
2022/10/30 14:54:00;;;;;;;13.07;5.53;;;;;;;17.99;63.02;100063.03;10270663;28;20054;-80
2022/10/30 14:59:14;;;;;;;11.77;5.80;;;;;;;18.06;63.51;100064.16;10293286;28;20057;-79
2022/10/30 15:04:23;;;;;;;14.95;6.15;;;;;;;18.04;63.26;100060.81;10274902;28;20096;-80
2022/10/30 15:10:02;;;;;;;10.18;5.80;;;;;;;17.88;63.77;100068.44;10278944;28;20062;-79
2022/10/30 15:15:10;;;;;;;14.23;6.47;;;;;;;17.72;64.24;100067.13;10277426;28;20139;-80
2022/10/30 15:20:26;;;;;;;15.27;6.75;;;;;;;17.48;64.73;100077.19;10273286;28;20233;-81
2022/10/30 15:25:51;;;;;;;11.65;5.60;;;;;;;17.16;64.73;100078.22;10292500;28;20504;-81
2022/10/30 15:31:06;;;;;;;16.10;5.18;;;;;;;16.96;64.61;100071.97;10279957;28;20046;-81
2022/10/30 15:36:30;;;;;;;13.40;5.15;;;;;;;16.72;64.99;100084.56;10277837;28;20420;-81
2022/10/30 15:41:43;;;;;;;10.73;5.50;;;;;;;16.58;65.47;100087.50;10276253;28;20078;-81
2022/10/30 15:46:50;;;;;;;16.50;5.78;;;;;;;16.42;65.94;100090.53;10276615;28;20051;-81
2022/10/30 15:52:03;;;;;;;14.65;6.75;;;;;;;16.21;66.29;100095.75;10277708;28;20057;-81
2022/10/30 15:57:22;;;;;;;13.55;5.57;;;;;;;16.07;66.49;100098.66;10275432;28;20055;-80
2022/10/30 16:02:48;;;;;;;18.55;6.53;;;;;;;15.81;67.07;100107.81;10276337;28;20512;-81
2022/10/30 16:08:17;;;;;;;12.77;6.47;;;;;;;15.54;67.67;100115.22;10272632;28;20065;-80
2022/10/30 16:13:28;;;;;;;17.58;6.47;;;;;;;15.40;68.35;100120.69;10273823;28;20166;-79
2022/10/30 16:18:34;;;;;;;12.55;6.20;;;;;;;15.31;68.18;100122.22;10270551;28;20425;-80
2022/10/30 16:23:39;;;;;;;19.13;6.70;;;;;;;15.19;68.61;100131.06;10272952;28;20616;-80
2022/10/30 16:28:52;;;;;;;15.55;6.45;;;;;;;15.02;69.05;100131.47;10275396;28;20145;-79
2022/10/30 16:33:57;;;;;;;13.80;7.18;;;;;;;14.95;69.34;100127.63;10271114;28;20061;-79
2022/10/30 16:39:02;;;;;;;15.13;7.50;;;;;;;14.88;69.50;100126.38;10290522;28;20054;-79
2022/10/30 16:44:34;;;;;;;14.77;7.47;;;;;;;14.72;69.43;100136.38;10273230;28;20065;-80
2022/10/30 16:49:45;;;;;;;17.08;6.80;;;;;;;14.65;69.67;100134.31;10271641;28;20058;-79
2022/10/30 16:55:20;;;;;;;16.15;7.40;;;;;;;14.49;69.86;100135.41;10273768;28;20051;-80
2022/10/30 17:00:25;;;;;;;18.92;7.43;;;;;;;14.42;70.27;100142.06;10272923;28;20150;-79
2022/10/30 17:05:38;;;;;;;17.13;8.27;;;;;;;14.34;70.27;100162.81;10270115;28;20549;-80
2022/10/30 17:10:55;;;;;;;18.50;8.23;;;;;;;14.16;70.40;100158.88;10274400;28;20057;-80
2022/10/30 17:15:58;;;;;;;20.27;8.43;;;;;;;14.09;70.67;100173.38;10287532;28;20058;-80
2022/10/30 17:21:06;;;;;;;21.80;8.05;;;;;;;14.02;70.71;100181.84;10273235;28;20410;-80
2022/10/30 17:26:17;;;;;;;18.63;8.90;;;;;;;13.90;70.84;100187.94;10270115;28;20130;-80
2022/10/30 17:31:41;;;;;;;13.40;7.43;;;;;;;13.81;71.01;100193.81;10270953;28;20058;-80
2022/10/30 17:36:45;;;;;;;16.10;8.43;;;;;;;13.75;70.92;100206.47;10270919;28;20059;-81
2022/10/30 17:41:54;;;;;;;21.17;8.30;;;;;;;13.70;71.34;100213.81;10273116;28;20054;-80
2022/10/30 17:46:57;;;;;;;23.38;8.75;;;;;;;13.66;71.43;100222.00;10270599;28;20057;-80
2022/10/30 17:52:01;;;;;;;19.60;8.57;;;;;;;13.57;71.46;100226.09;10271944;28;20129;-80
2022/10/30 17:57:03;;;;;;;16.80;9.25;;;;;;;13.51;71.26;100225.66;10268808;28;20133;-80
2022/10/30 18:02:22;;;;;;;25.30;10.93;;;;;;;13.40;71.62;100233.38;10270789;28;20050;-80
2022/10/30 18:07:23;;;;;;;21.08;9.77;;;;;;;13.34;71.89;100236.41;10269202;28;20066;-80
2022/10/30 18:12:25;;;;;;;17.27;8.68;;;;;;;13.28;71.77;100237.66;10264700;28;20047;-80
2022/10/30 18:17:28;;;;;;;23.35;8.88;;;;;;;13.20;71.43;100244.38;10262031;28;20186;-81
2022/10/30 18:22:30;;;;;;;15.88;8.60;;;;;;;13.05;71.47;100254.06;10259933;28;20057;-80
2022/10/30 18:27:32;;;;;;;16.27;9.13;;;;;;;12.89;72.10;100259.47;10261981;28;20051;-80
2022/10/30 18:32:34;;;;;;;18.55;8.10;;;;;;;12.88;71.84;100268.28;10279563;28;20102;-81
2022/10/30 18:37:36;;;;;;;21.23;8.20;;;;;;;12.81;71.67;100269.63;10265052;28;20051;-81
2022/10/30 18:42:38;;;;;;;20.02;9.70;;;;;;;12.81;72.13;100272.25;10260033;28;20050;-80
2022/10/30 18:47:41;;;;;;;21.67;10.07;;;;;;;12.75;71.69;100285.78;10260250;28;20054;-80
2022/10/30 18:52:43;;;;;;;24.55;11.60;;;;;;;12.69;71.52;100282.69;10275272;28;20046;-80
2022/10/30 18:57:46;;;;;;;25.08;12.30;;;;;;;12.55;71.93;100286.19;10265666;28;20059;-80
2022/10/30 19:02:48;;;;;;;20.23;10.90;;;;;;;12.50;71.91;100292.63;10261282;28;20055;-81
2022/10/30 19:07:50;;;;;;;20.17;9.02;;;;;;;12.45;72.05;100292.94;10260681;28;20065;-80
2022/10/30 19:13:22;;;;;;;21.42;10.63;;;;;;;12.40;71.58;100296.75;10260582;28;20054;-81
2022/10/30 19:18:24;;;;;;;22.15;9.50;;;;;;;12.31;71.98;100295.56;10260362;28;20061;-80
2022/10/30 19:23:26;;;;;;;22.20;10.15;;;;;;;12.28;71.80;100306.22;10261206;28;20051;-80
2022/10/30 19:28:29;;;;;;;26.88;11.95;;;;;;;12.15;71.81;100305.22;10265989;28;20050;-80
2022/10/30 19:33:31;;;;;;;26.25;13.57;;;;;;;12.09;72.11;100301.22;10264009;28;20541;-79
2022/10/30 19:38:33;;;;;;;26.27;13.07;;;;;;;12.03;71.97;100304.19;10260162;28;20058;-80
2022/10/30 19:43:35;;;;;;;23.92;10.80;;;;;;;11.99;71.92;100309.72;10268325;28;20500;-80
2022/10/30 19:48:37;;;;;;;21.17;10.25;;;;;;;11.97;71.98;100308.94;10269393;28;20061;-80
2022/10/30 19:53:58;;;;;;;21.05;9.77;;;;;;;11.93;72.37;100303.06;10277113;28;20450;-78
2022/10/30 19:59:00;;;;;;;15.40;8.13;;;;;;;11.83;72.52;100304.53;10270168;28;20066;-79
2022/10/30 20:04:01;;;;;;;15.25;6.88;;;;;;;11.84;72.27;100305.38;10271650;28;20059;-79
2022/10/30 20:09:04;;;;;;;17.92;8.45;;;;;;;11.83;72.96;100314.16;10268267;28;20050;-80
2022/10/30 20:14:06;;;;;;;23.35;9.43;;;;;;;11.79;72.58;100313.50;10266068;28;20129;-79
2022/10/30 20:19:28;;;;;;;20.95;9.75;;;;;;;11.65;73.00;100304.78;10268226;28;20043;-79
2022/10/30 20:24:29;;;;;;;17.13;9.50;;;;;;;11.69;72.70;100311.50;10266572;28;20051;-79
2022/10/30 20:29:32;;;;;;;16.17;8.32;;;;;;;11.61;72.55;100303.25;10270136;28;20055;-79
2022/10/30 20:34:34;;;;;;;21.10;10.07;;;;;;;11.48;72.59;100320.63;10275929;28;20042;-80
2022/10/30 20:39:36;;;;;;;19.95;10.27;;;;;;;11.33;72.35;100324.97;10264462;28;20046;-80
2022/10/30 20:44:38;;;;;;;22.60;11.18;;;;;;;11.26;72.57;100329.69;10268179;28;20078;-81
2022/10/30 20:49:40;;;;;;;18.20;9.55;;;;;;;11.29;72.60;100326.88;10267365;28;20058;-80
2022/10/30 20:54:42;;;;;;;15.55;9.25;;;;;;;11.28;72.83;100340.91;10261297;28;20046;-80
2022/10/30 20:59:43;;;;;;;23.15;10.63;;;;;;;11.21;72.72;100342.19;10266527;28;20073;-81
2022/10/30 21:04:45;;;;;;;30.00;16.15;;;;;;;11.23;72.18;100345.56;10268627;28;20057;-81
2022/10/30 21:09:47;;;;;;;22.30;12.23;;;;;;;11.18;72.04;100357.22;10267012;28;20497;-81
2022/10/30 21:14:48;;;;;;;21.75;10.60;;;;;;;11.13;72.24;100360.09;10267458;28;20061;-80
2022/10/30 21:19:50;;;;;;;27.58;12.05;;;;;;;11.13;71.83;100357.47;10266171;28;20802;-80
2022/10/30 21:24:52;;;;;;;18.98;11.38;;;;;;;11.08;71.84;100362.13;10266902;28;20055;-81
2022/10/30 21:29:54;;;;;;;23.27;11.45;;;;;;;11.10;71.81;100362.91;10266753;28;20060;-81
2022/10/30 21:34:55;;;;;;;49.85;16.92;;;;;;;11.09;71.45;100368.22;10266034;28;20409;-80
2022/10/30 21:39:57;;;;;;;21.35;12.30;;;;;;;11.13;71.51;100359.28;10264011;28;20043;-80
2022/10/30 21:44:59;;;;;;;27.10;9.95;;;;;;;11.17;71.53;100360.78;10261519;28;20057;-80
2022/10/30 21:50:01;;;;;;;437.10;24.75;;;;;;;11.12;71.30;100363.66;10269545;28;20489;-80
2022/10/30 21:55:09;;;;;;;442.02;23.92;;;;;;;10.95;71.07;100371.53;10266764;28;20137;-80
2022/10/30 22:00:12;;;;;;;25.17;13.70;;;;;;;10.90;71.30;100354.41;10263573;28;20873;-80
2022/10/30 22:05:13;;;;;;;11.02;8.10;;;;;;;10.88;71.52;100364.09;10263903;28;20062;-80
2022/10/30 22:10:15;;;;;;;75.82;15.88;;;;;;;10.88;71.25;100353.66;10269807;28;20051;-80
2022/10/30 22:15:17;;;;;;;270.35;25.60;;;;;;;10.79;71.11;100360.22;10265593;28;20065;-80
2022/10/30 22:20:18;;;;;;;46.22;15.02;;;;;;;10.67;71.24;100366.09;10262549;28;20059;-80
2022/10/30 22:25:20;;;;;;;25.10;13.15;;;;;;;10.71;71.28;100369.38;10266788;28;20609;-81
2022/10/30 22:30:22;;;;;;;19.55;10.00;;;;;;;10.69;71.10;100366.88;10268918;28;20054;-80
2022/10/30 22:35:23;;;;;;;19.02;10.63;;;;;;;10.68;71.22;100364.34;10267123;28;20616;-80
2022/10/30 22:40:25;;;;;;;21.08;10.98;;;;;;;10.73;71.02;100368.38;10266827;28;20057;-81
2022/10/30 22:45:27;;;;;;;27.70;10.85;;;;;;;10.79;70.76;100373.28;10266609;28;20058;-80
2022/10/30 22:50:29;;;;;;;78.53;13.48;;;;;;;10.72;70.99;100366.72;10265520;28;20778;-80
2022/10/30 22:55:30;;;;;;;111.07;15.88;;;;;;;10.50;70.47;100371.41;10267826;28;20046;-80
2022/10/30 23:00:32;;;;;;;23.98;10.77;;;;;;;10.44;71.00;100376.91;10266787;28;20430;-80
2022/10/30 23:05:34;;;;;;;131.90;12.90;;;;;;;10.40;70.89;100373.63;10266320;28;20055;-80
2022/10/30 23:10:35;;;;;;;30.70;10.75;;;;;;;10.40;71.24;100372.78;10265107;28;20050;-80